sensor_id;sensor_type;location;lat;lon;timestamp;P1;durP1;ratioP1;P2;durP2;ratioP2
16906;SDS011;8570;52.380;4.654;2023-02-24T00:00:18;12.13;;;2.07;;
16906;SDS011;8570;52.380;4.654;2023-02-24T00:05:36;6.47;;;2.00;;
16906;SDS011;8570;52.380;4.654;2023-02-24T00:10:38;3.93;;;1.47;;
16906;SDS011;8570;52.380;4.654;2023-02-24T00:15:41;13.23;;;2.10;;
16906;SDS011;8570;52.380;4.654;2023-02-24T00:20:44;10.00;;;2.00;;
16906;SDS011;8570;52.380;4.654;2023-02-24T00:25:46;5.93;;;1.70;;
16906;SDS011;8570;52.380;4.654;2023-02-24T00:30:48;6.93;;;1.70;;
16906;SDS011;8570;52.380;4.654;2023-02-24T00:35:51;7.97;;;1.37;;
16906;SDS011;8570;52.380;4.654;2023-02-24T00:40:54;12.43;;;1.87;;
16906;SDS011;8570;52.380;4.654;2023-02-24T00:45:58;10.27;;;1.80;;
16906;SDS011;8570;52.380;4.654;2023-02-24T00:51:03;9.13;;;1.70;;
16906;SDS011;8570;52.380;4.654;2023-02-24T00:56:06;8.93;;;1.57;;
16906;SDS011;8570;52.380;4.654;2023-02-24T01:01:12;6.90;;;1.83;;
16906;SDS011;8570;52.380;4.654;2023-02-24T01:06:18;5.47;;;1.63;;
16906;SDS011;8570;52.380;4.654;2023-02-24T01:11:22;8.67;;;2.43;;
16906;SDS011;8570;52.380;4.654;2023-02-24T01:16:44;6.53;;;1.40;;
16906;SDS011;8570;52.380;4.654;2023-02-24T01:21:50;11.20;;;1.30;;
16906;SDS011;8570;52.380;4.654;2023-02-24T01:26:54;6.90;;;1.77;;
16906;SDS011;8570;52.380;4.654;2023-02-24T01:31:56;10.03;;;1.40;;
16906;SDS011;8570;52.380;4.654;2023-02-24T01:37:00;7.93;;;1.57;;
16906;SDS011;8570;52.380;4.654;2023-02-24T01:42:03;6.60;;;1.90;;
16906;SDS011;8570;52.380;4.654;2023-02-24T01:47:06;4.03;;;1.33;;
16906;SDS011;8570;52.380;4.654;2023-02-24T01:52:09;7.90;;;1.90;;
16906;SDS011;8570;52.380;4.654;2023-02-24T01:57:17;5.73;;;1.40;;
16906;SDS011;8570;52.380;4.654;2023-02-24T02:02:21;8.07;;;1.70;;
16906;SDS011;8570;52.380;4.654;2023-02-24T02:07:25;10.33;;;1.40;;
16906;SDS011;8570;52.380;4.654;2023-02-24T02:12:28;9.23;;;1.57;;
16906;SDS011;8570;52.380;4.654;2023-02-24T02:17:37;9.23;;;1.70;;
16906;SDS011;8570;52.380;4.654;2023-02-24T02:23:05;4.60;;;1.07;;
16906;SDS011;8570;52.380;4.654;2023-02-24T02:28:22;7.87;;;1.87;;
16906;SDS011;8570;52.380;4.654;2023-02-24T02:33:51;4.53;;;1.33;;
16906;SDS011;8570;52.380;4.654;2023-02-24T02:39:09;4.73;;;1.33;;
16906;SDS011;8570;52.380;4.654;2023-02-24T02:44:17;10.53;;;1.40;;
16906;SDS011;8570;52.380;4.654;2023-02-24T02:49:25;5.07;;;1.20;;
16906;SDS011;8570;52.380;4.654;2023-02-24T02:54:34;8.40;;;1.53;;
16906;SDS011;8570;52.380;4.654;2023-02-24T02:59:45;15.90;;;2.33;;
16906;SDS011;8570;52.380;4.654;2023-02-24T03:04:53;9.57;;;1.47;;
16906;SDS011;8570;52.380;4.654;2023-02-24T03:09:58;7.10;;;1.40;;
16906;SDS011;8570;52.380;4.654;2023-02-24T03:15:07;5.30;;;1.30;;
16906;SDS011;8570;52.380;4.654;2023-02-24T03:20:17;3.97;;;1.20;;
16906;SDS011;8570;52.380;4.654;2023-02-24T03:25:25;9.63;;;1.37;;
16906;SDS011;8570;52.380;4.654;2023-02-24T03:30:31;8.13;;;1.73;;
16906;SDS011;8570;52.380;4.654;2023-02-24T03:35:40;6.50;;;1.50;;
16906;SDS011;8570;52.380;4.654;2023-02-24T03:40:43;5.10;;;1.40;;
16906;SDS011;8570;52.380;4.654;2023-02-24T03:45:45;7.97;;;1.67;;
16906;SDS011;8570;52.380;4.654;2023-02-24T03:50:49;7.37;;;1.27;;
16906;SDS011;8570;52.380;4.654;2023-02-24T03:55:54;7.27;;;1.37;;
16906;SDS011;8570;52.380;4.654;2023-02-24T04:01:05;7.97;;;1.83;;
16906;SDS011;8570;52.380;4.654;2023-02-24T04:06:15;12.17;;;1.67;;
16906;SDS011;8570;52.380;4.654;2023-02-24T04:11:23;8.13;;;1.70;;
16906;SDS011;8570;52.380;4.654;2023-02-24T04:16:30;5.97;;;1.70;;
16906;SDS011;8570;52.380;4.654;2023-02-24T04:21:40;11.00;;;2.10;;
16906;SDS011;8570;52.380;4.654;2023-02-24T04:26:44;18.73;;;3.03;;
16906;SDS011;8570;52.380;4.654;2023-02-24T04:31:49;12.53;;;2.90;;
16906;SDS011;8570;52.380;4.654;2023-02-24T04:36:55;9.30;;;3.07;;
16906;SDS011;8570;52.380;4.654;2023-02-24T04:41:58;12.30;;;3.20;;
16906;SDS011;8570;52.380;4.654;2023-02-24T04:47:00;16.07;;;3.20;;
16906;SDS011;8570;52.380;4.654;2023-02-24T04:52:04;12.33;;;2.97;;
16906;SDS011;8570;52.380;4.654;2023-02-24T04:57:08;9.53;;;3.00;;
16906;SDS011;8570;52.380;4.654;2023-02-24T05:02:10;15.00;;;3.30;;
16906;SDS011;8570;52.380;4.654;2023-02-24T05:07:16;15.80;;;3.00;;
16906;SDS011;8570;52.380;4.654;2023-02-24T05:12:18;12.20;;;2.93;;
16906;SDS011;8570;52.380;4.654;2023-02-24T05:17:20;11.40;;;3.07;;
16906;SDS011;8570;52.380;4.654;2023-02-24T05:22:24;11.27;;;2.93;;
16906;SDS011;8570;52.380;4.654;2023-02-24T05:27:28;16.87;;;2.77;;
16906;SDS011;8570;52.380;4.654;2023-02-24T05:32:29;12.93;;;2.53;;
16906;SDS011;8570;52.380;4.654;2023-02-24T05:37:37;12.47;;;2.53;;
16906;SDS011;8570;52.380;4.654;2023-02-24T05:42:41;12.10;;;2.40;;
16906;SDS011;8570;52.380;4.654;2023-02-24T05:47:44;9.80;;;2.23;;
16906;SDS011;8570;52.380;4.654;2023-02-24T05:52:50;14.37;;;3.00;;
16906;SDS011;8570;52.380;4.654;2023-02-24T05:57:55;12.60;;;2.60;;
16906;SDS011;8570;52.380;4.654;2023-02-24T06:02:58;13.50;;;2.50;;
16906;SDS011;8570;52.380;4.654;2023-02-24T06:08:08;10.47;;;2.47;;
16906;SDS011;8570;52.380;4.654;2023-02-24T06:13:11;16.77;;;2.77;;
16906;SDS011;8570;52.380;4.654;2023-02-24T06:18:13;14.00;;;2.20;;
16906;SDS011;8570;52.380;4.654;2023-02-24T06:23:18;15.63;;;2.50;;
16906;SDS011;8570;52.380;4.654;2023-02-24T06:28:20;6.70;;;2.43;;
16906;SDS011;8570;52.380;4.654;2023-02-24T06:33:24;13.57;;;2.63;;
16906;SDS011;8570;52.380;4.654;2023-02-24T06:38:28;13.30;;;2.63;;
16906;SDS011;8570;52.380;4.654;2023-02-24T06:43:30;12.33;;;2.63;;
16906;SDS011;8570;52.380;4.654;2023-02-24T06:48:32;8.50;;;2.60;;
16906;SDS011;8570;52.380;4.654;2023-02-24T06:53:36;16.43;;;3.07;;
16906;SDS011;8570;52.380;4.654;2023-02-24T06:58:42;12.43;;;3.13;;
16906;SDS011;8570;52.380;4.654;2023-02-24T07:03:45;13.90;;;3.13;;
16906;SDS011;8570;52.380;4.654;2023-02-24T07:09:04;14.97;;;2.90;;
16906;SDS011;8570;52.380;4.654;2023-02-24T07:14:08;13.73;;;2.63;;
16906;SDS011;8570;52.380;4.654;2023-02-24T07:19:13;19.67;;;3.53;;
16906;SDS011;8570;52.380;4.654;2023-02-24T07:24:20;12.70;;;2.80;;
16906;SDS011;8570;52.380;4.654;2023-02-24T07:29:25;17.83;;;3.17;;
16906;SDS011;8570;52.380;4.654;2023-02-24T07:34:28;18.53;;;3.20;;
16906;SDS011;8570;52.380;4.654;2023-02-24T07:39:34;18.20;;;3.00;;
16906;SDS011;8570;52.380;4.654;2023-02-24T07:44:36;22.87;;;4.03;;
16906;SDS011;8570;52.380;4.654;2023-02-24T07:49:39;12.07;;;2.73;;
16906;SDS011;8570;52.380;4.654;2023-02-24T07:54:42;13.00;;;2.67;;
16906;SDS011;8570;52.380;4.654;2023-02-24T07:59:44;16.97;;;3.13;;
16906;SDS011;8570;52.380;4.654;2023-02-24T08:04:48;18.67;;;3.43;;
16906;SDS011;8570;52.380;4.654;2023-02-24T08:09:51;20.77;;;4.17;;
16906;SDS011;8570;52.380;4.654;2023-02-24T08:15:23;19.43;;;3.30;;
16906;SDS011;8570;52.380;4.654;2023-02-24T08:20:32;15.57;;;3.10;;
16906;SDS011;8570;52.380;4.654;2023-02-24T08:25:52;20.90;;;3.67;;
16906;SDS011;8570;52.380;4.654;2023-02-24T08:30:54;11.97;;;3.47;;
16906;SDS011;8570;52.380;4.654;2023-02-24T08:35:56;19.75;;;4.57;;
16906;SDS011;8570;52.380;4.654;2023-02-24T08:41:01;22.80;;;4.70;;
16906;SDS011;8570;52.380;4.654;2023-02-24T08:46:05;20.83;;;4.70;;
16906;SDS011;8570;52.380;4.654;2023-02-24T08:51:18;15.40;;;5.00;;
16906;SDS011;8570;52.380;4.654;2023-02-24T08:56:24;18.97;;;5.43;;
16906;SDS011;8570;52.380;4.654;2023-02-24T09:01:28;22.23;;;6.37;;
16906;SDS011;8570;52.380;4.654;2023-02-24T09:06:34;23.80;;;6.70;;
16906;SDS011;8570;52.380;4.654;2023-02-24T09:11:40;25.63;;;7.90;;
16906;SDS011;8570;52.380;4.654;2023-02-24T09:16:44;24.30;;;8.10;;
16906;SDS011;8570;52.380;4.654;2023-02-24T09:22:02;26.23;;;8.03;;
16906;SDS011;8570;52.380;4.654;2023-02-24T09:27:15;24.67;;;8.53;;
16906;SDS011;8570;52.380;4.654;2023-02-24T09:32:17;26.87;;;9.27;;
16906;SDS011;8570;52.380;4.654;2023-02-24T09:37:19;26.00;;;10.07;;
16906;SDS011;8570;52.380;4.654;2023-02-24T09:42:27;20.87;;;9.60;;
16906;SDS011;8570;52.380;4.654;2023-02-24T09:47:32;23.93;;;10.93;;
16906;SDS011;8570;52.380;4.654;2023-02-24T09:52:56;21.20;;;10.27;;
16906;SDS011;8570;52.380;4.654;2023-02-24T09:58:16;25.63;;;10.57;;
16906;SDS011;8570;52.380;4.654;2023-02-24T10:03:29;21.90;;;10.57;;
16906;SDS011;8570;52.380;4.654;2023-02-24T10:08:48;23.30;;;11.10;;
16906;SDS011;8570;52.380;4.654;2023-02-24T10:13:56;22.83;;;10.80;;
16906;SDS011;8570;52.380;4.654;2023-02-24T10:18:59;18.53;;;10.50;;
16906;SDS011;8570;52.380;4.654;2023-02-24T10:24:15;22.37;;;9.30;;
16906;SDS011;8570;52.380;4.654;2023-02-24T10:29:25;14.17;;;8.63;;
16906;SDS011;8570;52.380;4.654;2023-02-24T10:34:33;16.60;;;6.10;;
16906;SDS011;8570;52.380;4.654;2023-02-24T10:39:35;14.47;;;4.90;;
16906;SDS011;8570;52.380;4.654;2023-02-24T10:44:43;14.77;;;4.90;;
16906;SDS011;8570;52.380;4.654;2023-02-24T10:49:51;24.20;;;4.93;;
16906;SDS011;8570;52.380;4.654;2023-02-24T10:54:59;16.70;;;4.27;;
16906;SDS011;8570;52.380;4.654;2023-02-24T11:00:13;20.63;;;4.37;;
16906;SDS011;8570;52.380;4.654;2023-02-24T11:05:50;26.07;;;4.53;;
16906;SDS011;8570;52.380;4.654;2023-02-24T11:11:08;24.03;;;3.90;;
16906;SDS011;8570;52.380;4.654;2023-02-24T11:16:20;32.80;;;5.37;;
16906;SDS011;8570;52.380;4.654;2023-02-24T11:21:48;27.63;;;5.03;;
16906;SDS011;8570;52.380;4.654;2023-02-24T11:26:50;43.47;;;5.80;;
16906;SDS011;8570;52.380;4.654;2023-02-24T11:31:57;31.70;;;5.50;;
16906;SDS011;8570;52.380;4.654;2023-02-24T11:37:13;27.07;;;5.10;;
16906;SDS011;8570;52.380;4.654;2023-02-24T11:42:26;25.97;;;5.57;;
16906;SDS011;8570;52.380;4.654;2023-02-24T11:47:40;30.87;;;6.40;;
16906;SDS011;8570;52.380;4.654;2023-02-24T11:52:44;31.93;;;5.67;;
16906;SDS011;8570;52.380;4.654;2023-02-24T11:57:50;33.77;;;7.53;;
16906;SDS011;8570;52.380;4.654;2023-02-24T12:02:58;34.83;;;6.23;;
16906;SDS011;8570;52.380;4.654;2023-02-24T12:08:04;30.33;;;5.83;;
16906;SDS011;8570;52.380;4.654;2023-02-24T12:13:15;30.53;;;5.77;;
16906;SDS011;8570;52.380;4.654;2023-02-24T12:18:24;29.17;;;4.43;;
16906;SDS011;8570;52.380;4.654;2023-02-24T12:23:30;30.40;;;5.20;;
16906;SDS011;8570;52.380;4.654;2023-02-24T12:28:39;34.47;;;4.70;;
16906;SDS011;8570;52.380;4.654;2023-02-24T12:33:54;38.73;;;5.77;;
16906;SDS011;8570;52.380;4.654;2023-02-24T12:39:08;32.20;;;4.90;;
16906;SDS011;8570;52.380;4.654;2023-02-24T12:44:18;34.27;;;5.27;;
16906;SDS011;8570;52.380;4.654;2023-02-24T12:49:45;38.10;;;6.17;;
16906;SDS011;8570;52.380;4.654;2023-02-24T12:54:59;33.37;;;5.40;;
16906;SDS011;8570;52.380;4.654;2023-02-24T13:00:09;25.60;;;4.80;;
16906;SDS011;8570;52.380;4.654;2023-02-24T13:05:18;27.90;;;4.47;;
16906;SDS011;8570;52.380;4.654;2023-02-24T13:10:27;11.20;;;2.27;;
16906;SDS011;8570;52.380;4.654;2023-02-24T13:15:47;10.43;;;2.97;;
16906;SDS011;8570;52.380;4.654;2023-02-24T13:21:00;16.77;;;2.83;;
16906;SDS011;8570;52.380;4.654;2023-02-24T13:26:04;18.27;;;2.90;;
16906;SDS011;8570;52.380;4.654;2023-02-24T13:31:07;20.23;;;3.87;;
16906;SDS011;8570;52.380;4.654;2023-02-24T13:36:14;20.37;;;4.63;;
16906;SDS011;8570;52.380;4.654;2023-02-24T13:41:34;21.07;;;4.10;;
16906;SDS011;8570;52.380;4.654;2023-02-24T13:46:45;19.57;;;3.73;;
16906;SDS011;8570;52.380;4.654;2023-02-24T13:52:00;21.27;;;3.93;;
16906;SDS011;8570;52.380;4.654;2023-02-24T13:57:05;18.90;;;3.50;;
16906;SDS011;8570;52.380;4.654;2023-02-24T14:02:20;19.10;;;3.37;;
16906;SDS011;8570;52.380;4.654;2023-02-24T14:07:29;12.30;;;2.90;;
16906;SDS011;8570;52.380;4.654;2023-02-24T14:12:33;9.17;;;2.67;;
16906;SDS011;8570;52.380;4.654;2023-02-24T14:17:36;12.60;;;2.57;;
16906;SDS011;8570;52.380;4.654;2023-02-24T14:22:42;13.40;;;2.20;;
16906;SDS011;8570;52.380;4.654;2023-02-24T14:27:46;11.17;;;3.07;;
16906;SDS011;8570;52.380;4.654;2023-02-24T14:32:50;8.37;;;2.27;;
16906;SDS011;8570;52.380;4.654;2023-02-24T14:37:54;20.37;;;3.13;;
16906;SDS011;8570;52.380;4.654;2023-02-24T14:42:56;11.80;;;1.90;;
16906;SDS011;8570;52.380;4.654;2023-02-24T14:47:59;13.83;;;2.47;;
16906;SDS011;8570;52.380;4.654;2023-02-24T14:53:03;12.47;;;3.23;;
16906;SDS011;8570;52.380;4.654;2023-02-24T14:58:10;14.17;;;3.30;;
16906;SDS011;8570;52.380;4.654;2023-02-24T15:03:16;20.43;;;3.63;;
16906;SDS011;8570;52.380;4.654;2023-02-24T15:08:28;19.93;;;2.83;;
16906;SDS011;8570;52.380;4.654;2023-02-24T15:13:34;15.20;;;2.50;;
16906;SDS011;8570;52.380;4.654;2023-02-24T15:18:39;13.17;;;3.17;;
16906;SDS011;8570;52.380;4.654;2023-02-24T15:23:43;11.73;;;3.07;;
16906;SDS011;8570;52.380;4.654;2023-02-24T15:28:46;8.13;;;1.77;;
16906;SDS011;8570;52.380;4.654;2023-02-24T15:33:58;11.67;;;3.60;;
16906;SDS011;8570;52.380;4.654;2023-02-24T15:39:04;14.90;;;3.17;;
16906;SDS011;8570;52.380;4.654;2023-02-24T15:44:25;19.83;;;3.47;;
16906;SDS011;8570;52.380;4.654;2023-02-24T15:49:27;17.37;;;3.23;;
16906;SDS011;8570;52.380;4.654;2023-02-24T15:54:32;15.37;;;3.53;;
16906;SDS011;8570;52.380;4.654;2023-02-24T15:59:36;24.53;;;3.20;;
16906;SDS011;8570;52.380;4.654;2023-02-24T16:04:39;17.77;;;3.60;;
16906;SDS011;8570;52.380;4.654;2023-02-24T16:09:42;17.73;;;3.60;;
16906;SDS011;8570;52.380;4.654;2023-02-24T16:14:45;24.53;;;3.67;;
16906;SDS011;8570;52.380;4.654;2023-02-24T16:19:53;17.10;;;3.23;;
16906;SDS011;8570;52.380;4.654;2023-02-24T16:24:57;19.20;;;3.83;;
16906;SDS011;8570;52.380;4.654;2023-02-24T16:29:59;24.53;;;4.30;;
16906;SDS011;8570;52.380;4.654;2023-02-24T16:35:01;22.23;;;6.03;;
16906;SDS011;8570;52.380;4.654;2023-02-24T16:40:05;21.63;;;3.20;;
16906;SDS011;8570;52.380;4.654;2023-02-24T16:45:19;8.87;;;2.23;;
16906;SDS011;8570;52.380;4.654;2023-02-24T16:50:22;7.87;;;2.37;;
16906;SDS011;8570;52.380;4.654;2023-02-24T16:55:29;15.27;;;3.80;;
16906;SDS011;8570;52.380;4.654;2023-02-24T17:00:31;14.90;;;4.00;;
16906;SDS011;8570;52.380;4.654;2023-02-24T17:05:33;26.13;;;3.93;;
16906;SDS011;8570;52.380;4.654;2023-02-24T17:10:36;21.87;;;4.50;;
16906;SDS011;8570;52.380;4.654;2023-02-24T17:15:39;19.93;;;3.90;;
16906;SDS011;8570;52.380;4.654;2023-02-24T17:20:41;19.83;;;4.10;;
16906;SDS011;8570;52.380;4.654;2023-02-24T17:25:44;14.40;;;3.70;;
16906;SDS011;8570;52.380;4.654;2023-02-24T17:30:50;16.67;;;4.27;;
16906;SDS011;8570;52.380;4.654;2023-02-24T17:35:51;16.13;;;4.03;;
16906;SDS011;8570;52.380;4.654;2023-02-24T17:40:55;18.23;;;3.60;;
16906;SDS011;8570;52.380;4.654;2023-02-24T17:45:56;15.70;;;3.73;;
16906;SDS011;8570;52.380;4.654;2023-02-24T17:51:02;19.67;;;4.80;;
16906;SDS011;8570;52.380;4.654;2023-02-24T17:56:06;26.50;;;4.87;;
16906;SDS011;8570;52.380;4.654;2023-02-24T18:01:09;24.30;;;4.83;;
16906;SDS011;8570;52.380;4.654;2023-02-24T18:06:11;29.90;;;5.17;;
16906;SDS011;8570;52.380;4.654;2023-02-24T18:11:15;24.63;;;5.30;;
16906;SDS011;8570;52.380;4.654;2023-02-24T18:16:18;19.83;;;3.97;;
16906;SDS011;8570;52.380;4.654;2023-02-24T18:21:20;21.83;;;5.37;;
16906;SDS011;8570;52.380;4.654;2023-02-24T18:26:24;26.47;;;5.03;;
16906;SDS011;8570;52.380;4.654;2023-02-24T18:31:26;26.10;;;4.23;;
16906;SDS011;8570;52.380;4.654;2023-02-24T18:36:28;23.50;;;4.90;;
16906;SDS011;8570;52.380;4.654;2023-02-24T18:41:31;24.23;;;5.03;;
16906;SDS011;8570;52.380;4.654;2023-02-24T18:46:33;19.73;;;3.30;;
16906;SDS011;8570;52.380;4.654;2023-02-24T18:51:35;21.17;;;3.90;;
16906;SDS011;8570;52.380;4.654;2023-02-24T18:56:39;16.83;;;4.10;;
16906;SDS011;8570;52.380;4.654;2023-02-24T19:01:41;25.10;;;5.40;;
16906;SDS011;8570;52.380;4.654;2023-02-24T19:06:42;21.53;;;5.03;;
16906;SDS011;8570;52.380;4.654;2023-02-24T19:11:49;29.83;;;5.63;;
16906;SDS011;8570;52.380;4.654;2023-02-24T19:16:53;26.17;;;5.07;;
16906;SDS011;8570;52.380;4.654;2023-02-24T19:21:54;20.63;;;4.73;;
16906;SDS011;8570;52.380;4.654;2023-02-24T19:26:58;17.27;;;4.67;;
16906;SDS011;8570;52.380;4.654;2023-02-24T19:31:59;19.30;;;4.50;;
16906;SDS011;8570;52.380;4.654;2023-02-24T19:37:01;19.50;;;3.50;;
16906;SDS011;8570;52.380;4.654;2023-02-24T19:42:04;13.33;;;2.60;;
16906;SDS011;8570;52.380;4.654;2023-02-24T19:47:06;16.87;;;3.13;;
16906;SDS011;8570;52.380;4.654;2023-02-24T19:52:08;14.07;;;2.83;;
16906;SDS011;8570;52.380;4.654;2023-02-24T19:57:12;18.53;;;3.90;;
16906;SDS011;8570;52.380;4.654;2023-02-24T20:02:14;15.07;;;3.50;;
16906;SDS011;8570;52.380;4.654;2023-02-24T20:07:15;18.50;;;4.13;;
16906;SDS011;8570;52.380;4.654;2023-02-24T20:12:19;15.90;;;4.20;;
16906;SDS011;8570;52.380;4.654;2023-02-24T20:17:20;23.47;;;4.77;;
16906;SDS011;8570;52.380;4.654;2023-02-24T20:22:22;19.27;;;4.13;;
16906;SDS011;8570;52.380;4.654;2023-02-24T20:27:26;23.60;;;3.57;;
16906;SDS011;8570;52.380;4.654;2023-02-24T20:32:27;18.87;;;4.33;;
16906;SDS011;8570;52.380;4.654;2023-02-24T20:37:29;27.27;;;4.90;;
16906;SDS011;8570;52.380;4.654;2023-02-24T20:42:33;21.57;;;4.00;;
16906;SDS011;8570;52.380;4.654;2023-02-24T20:47:34;18.67;;;4.00;;
16906;SDS011;8570;52.380;4.654;2023-02-24T20:52:36;24.57;;;4.60;;
16906;SDS011;8570;52.380;4.654;2023-02-24T20:57:40;19.80;;;4.00;;
16906;SDS011;8570;52.380;4.654;2023-02-24T21:02:42;22.57;;;4.37;;
16906;SDS011;8570;52.380;4.654;2023-02-24T21:07:44;21.23;;;4.27;;
16906;SDS011;8570;52.380;4.654;2023-02-24T21:12:47;14.33;;;3.67;;
16906;SDS011;8570;52.380;4.654;2023-02-24T21:17:49;12.90;;;2.80;;
16906;SDS011;8570;52.380;4.654;2023-02-24T21:22:51;8.70;;;1.77;;
16906;SDS011;8570;52.380;4.654;2023-02-24T21:27:54;8.13;;;2.03;;
16906;SDS011;8570;52.380;4.654;2023-02-24T21:32:56;13.43;;;3.50;;
16906;SDS011;8570;52.380;4.654;2023-02-24T21:37:58;13.50;;;3.10;;
16906;SDS011;8570;52.380;4.654;2023-02-24T21:43:01;18.03;;;3.40;;
16906;SDS011;8570;52.380;4.654;2023-02-24T21:48:04;20.43;;;3.60;;
16906;SDS011;8570;52.380;4.654;2023-02-24T21:53:06;19.07;;;3.43;;
16906;SDS011;8570;52.380;4.654;2023-02-24T21:58:10;18.87;;;3.43;;
16906;SDS011;8570;52.380;4.654;2023-02-24T22:03:12;12.57;;;2.80;;
16906;SDS011;8570;52.380;4.654;2023-02-24T22:08:14;17.63;;;3.43;;
16906;SDS011;8570;52.380;4.654;2023-02-24T22:13:17;24.80;;;3.63;;
16906;SDS011;8570;52.380;4.654;2023-02-24T22:18:19;13.60;;;3.73;;
16906;SDS011;8570;52.380;4.654;2023-02-24T22:23:21;22.80;;;3.43;;
16906;SDS011;8570;52.380;4.654;2023-02-24T22:28:24;18.07;;;4.60;;
16906;SDS011;8570;52.380;4.654;2023-02-24T22:33:26;22.63;;;4.13;;
16906;SDS011;8570;52.380;4.654;2023-02-24T22:38:29;24.53;;;3.67;;
16906;SDS011;8570;52.380;4.654;2023-02-24T22:43:33;13.47;;;3.97;;
16906;SDS011;8570;52.380;4.654;2023-02-24T22:48:35;18.27;;;3.17;;
16906;SDS011;8570;52.380;4.654;2023-02-24T22:53:38;21.60;;;3.40;;
16906;SDS011;8570;52.380;4.654;2023-02-24T22:58:43;17.73;;;3.87;;
16906;SDS011;8570;52.380;4.654;2023-02-24T23:03:45;20.30;;;4.70;;
16906;SDS011;8570;52.380;4.654;2023-02-24T23:08:47;18.07;;;3.17;;
16906;SDS011;8570;52.380;4.654;2023-02-24T23:13:51;19.50;;;2.80;;
16906;SDS011;8570;52.380;4.654;2023-02-24T23:18:55;12.57;;;2.63;;
16906;SDS011;8570;52.380;4.654;2023-02-24T23:23:58;15.47;;;2.87;;
16906;SDS011;8570;52.380;4.654;2023-02-24T23:29:02;11.70;;;2.67;;
16906;SDS011;8570;52.380;4.654;2023-02-24T23:34:05;17.23;;;3.90;;
16906;SDS011;8570;52.380;4.654;2023-02-24T23:39:07;21.07;;;4.87;;
16906;SDS011;8570;52.380;4.654;2023-02-24T23:44:10;22.17;;;4.97;;
16906;SDS011;8570;52.380;4.654;2023-02-24T23:49:13;23.47;;;4.07;;
16906;SDS011;8570;52.380;4.654;2023-02-24T23:54:15;22.93;;;3.80;;
16906;SDS011;8570;52.380;4.654;2023-02-24T23:59:19;23.13;;;4.10;;
